createdAt,value
2023-01-17T00:08:42.116Z,90
2023-01-17T00:18:44.111Z,91
2023-01-17T00:28:45.592Z,91
2023-01-17T00:38:46.648Z,91
2023-01-17T00:48:48.046Z,89
2023-01-17T01:08:51.097Z,89
2023-01-17T01:18:52.763Z,89
2023-01-17T01:28:54.354Z,90
2023-01-17T01:38:55.921Z,90
2023-01-17T01:48:57.279Z,89
2023-01-17T01:58:59.203Z,89
2023-01-17T02:09:00.466Z,90
2023-01-17T02:19:02.312Z,90
2023-01-17T02:29:03.354Z,91
2023-01-17T03:19:10.484Z,92
2023-01-17T03:29:12.335Z,94
2023-01-17T03:39:14.024Z,95
2023-01-17T03:49:15.761Z,95
2023-01-17T03:59:16.970Z,95
2023-01-17T04:09:18.430Z,95
2023-01-17T04:19:19.723Z,94
2023-01-17T04:29:21.082Z,94
2023-01-17T04:39:22.394Z,94
2023-01-17T04:42:00.726Z,94
2023-01-17T04:49:33.143Z,94
2023-01-17T04:59:34.734Z,94
2023-01-17T05:09:36.080Z,94
2023-01-17T05:19:37.844Z,93
2023-01-17T05:29:39.764Z,92
2023-01-17T05:39:41.601Z,92
2023-01-17T05:49:45.809Z,91
2023-01-17T05:59:44.505Z,91
2023-01-17T06:09:46.003Z,92
2023-01-17T06:19:47.121Z,92
2023-01-17T06:29:49.064Z,91
2023-01-17T06:39:50.231Z,91
2023-01-17T06:49:51.684Z,91
2023-01-17T06:59:53.486Z,91
2023-01-17T07:09:54.662Z,91
2023-01-17T07:29:57.965Z,91
2023-01-17T07:39:59.747Z,90
2023-01-17T07:50:01.638Z,90
2023-01-17T08:00:02.933Z,90
2023-01-17T08:10:04.829Z,88
2023-01-17T08:20:06.037Z,89
2023-01-17T08:30:07.728Z,89
2023-01-17T08:40:09.373Z,89
2023-01-17T08:50:10.669Z,89
2023-01-17T09:00:12.639Z,89
2023-01-17T09:10:14.001Z,88
2023-01-17T09:20:15.659Z,87
2023-01-17T09:30:16.876Z,88
2023-01-17T09:40:18.098Z,87
2023-01-17T09:50:19.668Z,86
2023-01-17T10:20:23.464Z,85
2023-01-17T10:30:24.880Z,84
2023-01-17T10:40:26.078Z,83
2023-01-17T10:50:27.510Z,83
2023-01-17T11:00:29.396Z,83
2023-01-17T11:20:33.366Z,83
2023-01-17T11:30:34.147Z,82
2023-01-17T11:40:35.573Z,82
2023-01-17T11:50:37.134Z,80
2023-01-17T12:10:40.774Z,79
2023-01-17T12:20:42.571Z,80
2023-01-17T12:30:43.848Z,79
2023-01-17T12:40:45.349Z,78
2023-01-17T12:50:46.860Z,78
2023-01-17T13:00:48.530Z,76
2023-01-17T13:20:52.169Z,74
2023-01-17T13:40:55.366Z,75
2023-01-17T14:00:58.409Z,70
2023-01-17T14:10:59.468Z,72
2023-01-17T14:21:01.168Z,72
2023-01-17T14:31:02.969Z,73
2023-01-17T14:41:04.156Z,73
2023-01-17T15:21:11.378Z,76
2023-01-17T15:31:13.181Z,77
2023-01-17T15:41:14.874Z,78
2023-01-17T15:51:16.597Z,79
2023-01-17T16:11:19.698Z,80
2023-01-17T16:21:21.336Z,80
2023-01-17T16:31:22.677Z,81
2023-01-17T16:51:25.648Z,82
2023-01-17T17:01:27.055Z,85
2023-01-17T18:01:36.320Z,87
2023-01-17T18:11:37.889Z,86
2023-01-17T18:41:41.882Z,87
2023-01-17T18:51:43.152Z,88
2023-01-17T19:01:44.260Z,88
2023-01-17T19:11:45.418Z,88
2023-01-17T19:21:46.607Z,88
2023-01-17T19:41:50.048Z,89
2023-01-17T20:11:54.875Z,90
2023-01-17T20:42:00.017Z,91
2023-01-17T20:52:01.783Z,91
2023-01-17T21:02:03.304Z,91
2023-01-17T21:12:04.175Z,92
2023-01-17T21:32:07.144Z,92
2023-01-17T22:12:13.285Z,93
2023-01-17T23:12:22.555Z,92
2023-01-17T23:52:28.243Z,92
